Time;durP1;ratioP1;P1;durP2;ratioP2;P2;SDS_P1;SDS_P2;PMS_P1;PMS_P2;Temp;Humidity;BMP_temperature;BMP_pressure;BME280_temperature;BME280_humidity;BME280_pressure;Samples;Min_cycle;Max_cycle;Signal;HPM_P1;HPM_P2
2022/04/01 00:00:49;;;;;;;;;20.33;18.00;;;25.68;95536.93;;;;117363;1188;24868;-45
2022/04/01 00:03:19;;;;;;;;;15.50;14.00;;;25.67;95533.20;;;;117356;1190;25700;-44
2022/04/01 00:05:52;;;;;;;;;18.00;18.00;;;25.65;95535.60;;;;117365;1189;25470;-43
2022/04/01 00:08:22;;;;;;;;;22.00;20.00;;;25.66;95535.05;;;;117358;1188;25235;-44
2022/04/01 00:10:54;;;;;;;;;17.67;16.33;;;25.67;95534.02;;;;117338;1191;26413;-43
2022/04/01 00:13:27;;;;;;;;;18.33;14.33;;;25.67;95525.96;;;;117340;1190;24894;-41
2022/04/01 00:15:59;;;;;;;;;20.50;16.50;;;25.67;95522.62;;;;117356;1190;24945;-42
2022/04/01 00:18:32;;;;;;;;;19.50;19.50;;;25.67;95522.80;;;;117358;1188;26238;-44
2022/04/01 00:21:04;;;;;;;;;17.50;17.00;;;25.67;95517.43;;;;117378;1189;25370;-43
2022/04/01 00:23:35;;;;;;;;;19.00;17.50;;;25.67;95510.62;;;;117330;1190;25908;-44
2022/04/01 00:26:05;;;;;;;;;17.67;15.00;;;25.65;95514.20;;;;117353;1188;25171;-43
2022/04/01 00:28:38;;;;;;;;;14.00;14.00;;;25.65;95515.55;;;;117365;1189;25995;-43
2022/04/01 00:31:06;;;;;;;;;17.33;17.33;;;25.66;95516.92;;;;117380;1189;24807;-44
2022/04/01 00:33:40;;;;;;;;;17.50;15.25;;;25.64;95516.73;;;;117373;1189;24959;-44
2022/04/01 00:36:13;;;;;;;;;19.33;16.00;;;25.64;95512.46;;;;117394;1190;24815;-41
2022/04/01 00:38:45;;;;;;;;;18.33;14.33;;;25.67;95510.69;;;;117343;1189;26007;-44
2022/04/01 00:41:15;;;;;;;;;11.00;11.00;;;25.65;95510.92;;;;117372;1190;25099;-43
2022/04/01 00:44:23;;;;;;;;;18.50;17.50;;;25.64;95507.33;;;;117360;1189;25291;-43
2022/04/01 00:46:57;;;;;;;;;12.67;12.67;;;25.78;95512.41;;;;117364;1188;24774;-44
2022/04/01 00:49:29;;;;;;;;;18.00;17.00;;;25.76;95515.27;;;;117401;1190;25331;-42
2022/04/01 00:51:58;;;;;;;;;16.33;15.00;;;25.72;95514.48;;;;117428;1189;24842;-44
2022/04/01 00:54:28;;;;;;;;;17.00;16.33;;;25.73;95514.77;;;;117557;1190;25799;-41
2022/04/01 00:56:59;;;;;;;;;16.67;15.00;;;25.71;95512.44;;;;117438;1189;26408;-42
2022/04/01 00:59:32;;;;;;;;;16.25;16.00;;;25.69;95512.48;;;;117414;1189;24724;-42
2022/04/01 01:02:08;;;;;;;;;17.00;15.00;;;25.70;95509.71;;;;117457;1190;25156;-45
2022/04/01 01:04:41;;;;;;;;;15.33;15.00;;;25.71;95508.64;;;;117455;1189;25602;-45
2022/04/01 01:07:14;;;;;;;;;18.67;17.00;;;25.70;95507.31;;;;117364;1189;25813;-41
2022/04/01 01:09:50;;;;;;;;;16.50;14.00;;;25.68;95513.50;;;;117358;1189;25527;-41
2022/04/01 01:12:20;;;;;;;;;17.00;17.00;;;25.68;95510.64;;;;117388;1189;25434;-44
2022/04/01 01:14:51;;;;;;;;;16.33;12.00;;;25.67;95509.27;;;;117356;1190;24866;-44
2022/04/01 01:17:25;;;;;;;;;18.50;15.50;;;25.66;95507.00;;;;117352;1189;25400;-44
2022/04/01 01:19:53;;;;;;;;;15.00;13.67;;;25.64;95507.23;;;;117355;1190;25196;-43
2022/04/01 01:22:23;;;;;;;;;13.75;10.75;;;25.62;95506.67;;;;117368;1188;25519;-43
2022/04/01 01:24:56;;;;;;;;;16.00;13.00;;;25.62;95505.71;;;;117365;1188;24892;-45
2022/04/01 01:27:28;;;;;;;;;16.50;13.75;;;25.63;95506.75;;;;117398;1190;25333;-44
2022/04/01 01:30:07;;;;;;;;;16.00;15.00;;;25.64;95502.83;;;;117368;1188;25401;-42
2022/04/01 01:32:37;;;;;;;;;15.25;13.50;;;25.65;95499.21;;;;117357;1189;26612;-43
2022/04/01 01:35:12;;;;;;;;;19.00;15.75;;;25.63;95492.98;;;;117319;1189;24814;-42
2022/04/01 01:37:44;;;;;;;;;17.33;13.67;;;25.64;95487.63;;;;117359;1189;25425;-45
2022/04/01 01:40:12;;;;;;;;;17.00;15.67;;;25.65;95490.46;;;;117387;1190;24773;-45
2022/04/01 01:42:45;;;;;;;;;18.00;16.00;;;25.62;95490.24;;;;117316;1189;25058;-45
2022/04/01 01:45:19;;;;;;;;;17.67;17.67;;;25.62;95489.99;;;;117344;1190;24959;-44
2022/04/01 01:47:47;;;;;;;;;18.67;16.33;;;25.61;95491.40;;;;117373;1190;25530;-45
2022/04/01 01:56:05;;;;;;;;;14.75;12.00;;;25.61;95492.00;;;;117345;1190;25476;-44
2022/04/01 01:58:35;;;;;;;;;12.00;10.33;;;25.60;95493.77;;;;117366;1190;25313;-44
2022/04/01 02:01:03;;;;;;;;;18.33;14.67;;;25.57;95485.95;;;;117357;1190;24736;-42
2022/04/01 02:03:33;;;;;;;;;16.67;14.33;;;25.55;95481.52;;;;117322;1190;25510;-43
2022/04/01 02:06:06;;;;;;;;;13.33;11.33;;;25.56;95475.93;;;;117333;1190;25310;-44
2022/04/01 02:08:36;;;;;;;;;16.67;13.67;;;25.56;95478.36;;;;117333;1190;25040;-40
2022/04/01 02:11:07;;;;;;;;;11.25;10.00;;;25.56;95473.50;;;;117365;1190;25672;-41
2022/04/01 02:13:38;;;;;;;;;16.75;12.75;;;25.56;95478.75;;;;117350;1190;25336;-43
2022/04/01 02:16:08;;;;;;;;;14.50;14.50;;;25.55;95481.15;;;;117312;1190;24947;-44
2022/04/01 02:18:44;;;;;;;;;14.33;14.33;;;25.56;95486.36;;;;117375;1190;25466;-42
2022/04/01 02:21:12;;;;;;;;;12.50;12.00;;;25.56;95490.60;;;;117339;1190;24887;-42
2022/04/01 02:23:47;;;;;;;;;10.33;10.33;;;25.54;95492.61;;;;117360;1190;25682;-42
2022/04/01 02:26:19;;;;;;;;;14.50;13.00;;;25.55;95491.39;;;;117364;1190;25089;-44
2022/04/01 02:28:47;;;;;;;;;15.33;11.67;;;25.55;95492.38;;;;117338;1190;24897;-43
2022/04/01 02:31:18;;;;;;;;;19.00;14.25;;;25.55;95492.52;;;;117381;1188;25265;-44
2022/04/01 02:33:48;;;;;;;;;15.25;14.25;;;25.56;95490.64;;;;117389;1190;25551;-41
2022/04/01 02:36:18;;;;;;;;;14.75;12.50;;;25.56;95492.37;;;;117342;1187;24800;-45
2022/04/01 02:38:46;;;;;;;;;16.75;15.00;;;25.53;95495.23;;;;117333;1190;25372;-42
2022/04/01 02:41:22;;;;;;;;;13.67;12.33;;;25.53;95496.36;;;;117350;1189;24886;-41
2022/04/01 02:44:08;;;;;;;;;14.50;11.00;;;25.54;95498.18;;;;117344;1190;24963;-44
2022/04/01 02:46:37;;;;;;;;;10.25;9.00;;;25.60;95493.70;;;;117338;1190;25261;-42
2022/04/01 02:49:08;;;;;;;;;14.33;11.33;;;25.61;95487.23;;;;117341;1190;25700;-44
2022/04/01 02:51:40;;;;;;;;;13.50;12.75;;;25.57;95479.84;;;;117336;1191;24838;-40
2022/04/01 02:54:11;;;;;;;;;13.50;13.50;;;25.57;95474.95;;;;117353;1187;25410;-44
2022/04/01 02:56:45;;;;;;;;;11.25;11.25;;;25.55;95476.41;;;;117323;1189;24717;-44
2022/04/01 02:59:17;;;;;;;;;18.25;15.75;;;25.56;95467.42;;;;117359;1189;25480;-44
2022/04/01 03:01:47;;;;;;;;;13.33;12.67;;;25.58;95459.17;;;;117335;1190;25069;-42
2022/04/01 03:04:18;;;;;;;;;13.00;12.00;;;25.55;95455.98;;;;117356;1190;25055;-44
2022/04/01 03:06:49;;;;;;;;;16.00;14.00;;;25.54;95447.97;;;;117344;1189;24906;-44
2022/04/01 03:09:20;;;;;;;;;16.00;12.75;;;25.53;95449.44;;;;117329;1189;25541;-41
2022/04/01 03:11:53;;;;;;;;;16.00;11.00;;;25.53;95448.55;;;;117324;1188;25172;-41
2022/04/01 03:14:24;;;;;;;;;14.00;11.67;;;25.53;95453.18;;;;117399;1190;25296;-42
2022/04/01 03:16:55;;;;;;;;;13.33;13.00;;;25.54;95462.34;;;;117373;1190;24917;-43
2022/04/01 03:19:23;;;;;;;;;16.50;16.00;;;25.54;95467.84;;;;117417;1190;24790;-44
2022/04/01 03:21:53;;;;;;;;;14.00;13.33;;;25.53;95468.66;;;;117328;1190;25174;-43
2022/04/01 03:24:24;;;;;;;;;16.25;13.00;;;25.52;95473.95;;;;117375;1188;25535;-42
2022/04/01 03:26:56;;;;;;;;;12.00;11.50;;;25.53;95482.38;;;;117340;1190;25026;-42
2022/04/01 03:29:27;;;;;;;;;14.67;12.00;;;25.53;95488.67;;;;117373;1190;25744;-42
2022/04/01 03:31:59;;;;;;;;;17.00;13.00;;;25.52;95483.11;;;;117372;1189;25685;-44
2022/04/01 03:34:28;;;;;;;;;12.00;10.67;;;25.54;95478.67;;;;117414;1189;25500;-42
2022/04/01 03:36:56;;;;;;;;;14.50;12.25;;;25.53;95479.56;;;;117338;1189;25694;-43
2022/04/01 03:39:27;;;;;;;;;10.33;10.33;;;25.51;95480.69;;;;117348;1190;25184;-41
2022/04/01 03:42:06;;;;;;;;;10.67;10.67;;;25.52;95481.00;;;;117375;1189;24933;-45
2022/04/01 03:44:41;;;;;;;;;13.00;11.75;;;25.58;95485.08;;;;117353;1190;24848;-41
2022/04/01 03:47:18;;;;;;;;;12.00;12.00;;;25.58;95487.09;;;;117341;1190;25629;-43
2022/04/01 03:49:51;;;;;;;;;12.50;9.50;;;25.57;95490.11;;;;117356;1188;25542;-42
2022/04/01 03:52:24;;;;;;;;;11.33;11.33;;;25.57;95486.56;;;;117367;1190;25338;-45
2022/04/01 03:55:02;;;;;;;;;11.00;11.00;;;25.56;95481.91;;;;117349;1190;25068;-44
2022/04/01 03:57:39;;;;;;;;;9.00;7.75;;;25.56;95477.34;;;;117349;1189;25063;-42
2022/04/01 04:02:52;;;;;;;;;10.33;10.00;;;25.61;95478.58;;;;110089;1186;3012847;-41
2022/04/01 04:05:24;;;;;;;;;11.33;9.67;;;25.69;95480.13;;;;116970;1192;24824;-41
2022/04/01 04:07:55;;;;;;;;;14.00;10.67;;;25.64;95479.98;;;;117314;1190;25380;-41
2022/04/01 04:10:30;;;;;;;;;15.75;13.50;;;25.60;95486.16;;;;117115;1191;25557;-42
2022/04/01 04:13:07;;;;;;;;;14.25;13.75;;;25.60;95483.66;;;;117320;1191;26104;-39
2022/04/01 04:15:47;;;;;;;;;15.00;13.67;;;25.60;95480.64;;;;117097;1193;25473;-40
2022/04/01 04:18:19;;;;;;;;;13.00;10.75;;;25.62;95476.92;;;;117345;1191;24980;-40
2022/04/01 04:21:27;;;;;;;;;13.25;10.75;;;25.60;95475.23;;;;117318;1191;25583;-40
2022/04/01 04:23:58;;;;;;;;;13.25;11.25;;;25.65;95480.89;;;;117073;1192;25680;-41
2022/04/01 04:26:39;;;;;;;;;14.50;13.00;;;25.65;95478.46;;;;117340;1191;26046;-40
2022/04/01 04:29:15;;;;;;;;;13.00;11.50;;;25.61;95474.38;;;;117070;1192;25474;-39
2022/04/01 04:31:59;;;;;;;;;13.50;11.25;;;25.59;95474.75;;;;117365;1191;26420;-41
2022/04/01 04:34:34;;;;;;;;;15.00;11.75;;;25.63;95478.36;;;;117362;1189;25605;-42
2022/04/01 04:37:09;;;;;;;;;12.50;11.50;;;25.64;95475.34;;;;117315;1191;26545;-40
2022/04/01 04:39:43;;;;;;;;;14.00;12.50;;;25.62;95475.83;;;;117315;1191;25353;-39
2022/04/01 04:42:15;;;;;;;;;11.67;11.00;;;25.60;95482.67;;;;117324;1190;26312;-40
2022/04/01 04:44:46;;;;;;;;;15.00;12.67;;;25.55;95490.26;;;;117348;1190;25632;-41
2022/04/01 04:47:25;;;;;;;;;13.50;12.00;;;25.53;95490.48;;;;117143;1191;25396;-39
2022/04/01 04:50:00;;;;;;;;;15.67;12.00;;;25.58;95488.65;;;;117067;1191;25171;-40
2022/04/01 04:52:36;;;;;;;;;10.75;10.50;;;25.58;95489.41;;;;117305;1190;25026;-40
2022/04/01 04:55:10;;;;;;;;;15.00;12.25;;;25.57;95491.58;;;;117320;1191;24841;-41
2022/04/01 04:57:46;;;;;;;;;16.75;14.50;;;25.57;95486.09;;;;117316;1191;25475;-42
2022/04/01 05:00:19;;;;;;;;;14.00;13.00;;;25.56;95479.52;;;;117336;1190;25233;-40
2022/04/01 05:03:15;;;;;;;;;14.33;11.67;;;25.54;95487.30;;;;117350;1189;24837;-39
2022/04/01 05:05:51;;;;;;;;;13.00;12.00;;;25.54;95489.84;;;;117324;1189;25828;-40
2022/04/01 05:08:26;;;;;;;;;12.00;11.75;;;25.52;95495.27;;;;117358;1191;25974;-42
2022/04/01 05:11:06;;;;;;;;;15.33;11.00;;;25.53;95500.95;;;;117319;1190;24953;-40
2022/04/01 05:14:00;;;;;;;;;9.25;9.25;;;25.53;95496.25;;;;117328;1190;25015;-38
2022/04/01 05:16:32;;;;;;;;;14.00;11.00;;;25.60;95499.01;;;;117046;1191;25146;-39
2022/04/01 05:19:09;;;;;;;;;11.67;9.67;;;25.57;95505.47;;;;117306;1191;25840;-42
2022/04/01 05:22:05;;;;;;;;;10.75;10.75;;;25.56;95505.84;;;;117327;1191;25704;-40
2022/04/01 05:24:39;;;;;;;;;15.67;14.33;;;25.65;95504.27;;;;117320;1189;25479;-41
2022/04/01 05:27:28;;;;;;;;;14.00;11.00;;;25.62;95509.74;;;;117108;1192;25363;-38
2022/04/01 05:30:16;;;;;;;;;15.00;12.00;;;25.59;95511.02;;;;117310;1191;25464;-40
2022/04/01 05:33:09;;;;;;;;;13.00;12.00;;;25.60;95511.60;;;;117351;1190;25491;-39
2022/04/01 05:35:40;;;;;;;;;13.00;11.50;;;25.57;95506.27;;;;117317;1191;25652;-42
2022/04/01 05:38:15;;;;;;;;;13.00;12.33;;;25.55;95504.73;;;;117066;1193;24830;-40
2022/04/01 05:40:43;;;;;;;;;9.50;9.50;;;25.53;95504.56;;;;117103;1192;25599;-41
2022/04/01 05:43:19;;;;;;;;;12.00;11.25;;;25.50;95499.05;;;;117297;1190;25051;-39
2022/04/01 05:45:53;;;;;;;;;13.00;12.00;;;25.49;95490.45;;;;117104;1191;25669;-40
2022/04/01 05:48:22;;;;;;;;;10.00;10.00;;;25.49;95490.65;;;;117295;1191;24934;-38
2022/04/01 05:50:51;;;;;;;;;11.50;11.50;;;25.49;95488.73;;;;117375;1191;25692;-41
2022/04/01 05:53:22;;;;;;;;;18.67;13.00;;;25.48;95479.29;;;;117318;1191;25596;-42
2022/04/01 05:55:54;;;;;;;;;17.00;16.50;;;25.47;95472.69;;;;117341;1190;25104;-39
2022/04/01 05:58:26;;;;;;;;;18.00;14.50;;;25.40;95465.05;;;;117369;1191;25264;-40
2022/04/01 06:01:05;;;;;;;;;15.00;14.00;;;25.18;95466.05;;;;117357;1191;24822;-41
2022/04/01 06:03:55;;;;;;;;;20.00;15.00;;;25.01;95465.86;;;;117374;1191;25608;-40
2022/04/01 06:06:32;;;;;;;;;13.00;11.00;;;24.80;95466.82;;;;117371;1190;25124;-41
2022/04/01 06:09:14;;;;;;;;;16.00;15.67;;;24.60;95469.73;;;;117370;1190;24907;-39
2022/04/01 06:11:53;;;;;;;;;9.00;8.33;;;24.47;95475.07;;;;117091;1191;25095;-41
2022/04/01 06:14:35;;;;;;;;;17.00;12.00;;;24.36;95483.77;;;;117351;1190;25505;-40
2022/04/01 06:17:28;;;;;;;;;16.00;14.00;;;24.25;95484.34;;;;117394;1191;25520;-42
2022/04/01 06:19:57;;;;;;;;;18.00;15.00;;;24.10;95474.36;;;;117372;1190;25351;-40
2022/04/01 06:22:36;;;;;;;;;14.50;13.50;;;23.94;95471.80;;;;117348;1191;25096;-40
2022/04/01 06:25:12;;;;;;;;;23.00;16.33;;;23.77;95476.45;;;;117348;1190;25178;-40
2022/04/01 06:27:48;;;;;;;;;19.00;13.50;;;23.63;95481.84;;;;117379;1191;24842;-40
2022/04/01 06:30:22;;;;;;;;;17.00;14.33;;;23.51;95483.52;;;;117365;1191;25762;-39
2022/04/01 06:32:53;;;;;;;;;12.00;11.00;;;23.49;95482.98;;;;117363;1191;25070;-40
2022/04/01 06:35:33;;;;;;;;;11.33;11.33;;;23.54;95480.44;;;;117350;1190;24940;-41
2022/04/01 06:38:09;;;;;;;;;16.00;14.00;;;23.59;95481.67;;;;117380;1191;25474;-39
2022/04/01 06:40:58;;;;;;;;;16.00;14.67;;;23.68;95476.70;;;;117391;1191;24894;-40
2022/04/01 06:43:27;;;;;;;;;12.67;12.00;;;23.79;95469.55;;;;117367;1189;25427;-39
2022/04/01 06:45:57;;;;;;;;;17.33;13.00;;;23.83;95473.03;;;;117360;1191;25128;-39
2022/04/01 06:48:32;;;;;;;;;19.00;14.00;;;23.89;95474.61;;;;117331;1191;25092;-39
2022/04/01 06:51:04;;;;;;;;;16.75;12.25;;;23.95;95474.59;;;;117296;1191;25472;-41
2022/04/01 06:53:40;;;;;;;;;18.33;15.33;;;24.02;95475.40;;;;117309;1190;25082;-42
2022/04/01 06:56:12;;;;;;;;;13.33;12.33;;;24.09;95465.86;;;;117314;1191;26248;-40
2022/04/01 06:58:45;;;;;;;;;16.50;13.00;;;24.16;95464.88;;;;117158;1191;24813;-41
2022/04/01 07:01:16;;;;;;;;;15.33;11.00;;;24.22;95462.40;;;;117337;1189;24925;-39
2022/04/01 07:03:46;;;;;;;;;15.00;13.33;;;24.28;95464.04;;;;117108;1193;25208;-39
2022/04/01 07:06:20;;;;;;;;;16.00;14.00;;;24.34;95468.44;;;;117283;1189;24992;-41
2022/04/01 07:08:48;;;;;;;;;14.33;11.00;;;24.39;95463.30;;;;117321;1190;25248;-41
2022/04/01 07:11:21;;;;;;;;;22.67;13.33;;;24.46;95462.08;;;;117090;1191;24971;-40
2022/04/01 07:13:53;;;;;;;;;16.67;13.00;;;24.49;95458.23;;;;117087;1191;25639;-41
2022/04/01 07:16:22;;;;;;;;;16.75;12.75;;;24.54;95457.10;;;;117400;1189;25479;-39
2022/04/01 07:18:55;;;;;;;;;17.00;13.50;;;24.58;95452.91;;;;117312;1190;25775;-39
2022/04/01 07:21:27;;;;;;;;;14.50;13.25;;;24.60;95454.45;;;;117324;1189;25701;-41
2022/04/01 07:23:59;;;;;;;;;14.67;13.00;;;24.65;95456.98;;;;117308;1191;25283;-40
2022/04/01 07:26:32;;;;;;;;;17.50;13.25;;;24.69;95459.43;;;;117334;1190;24979;-39
2022/04/01 07:29:01;;;;;;;;;17.00;13.33;;;24.73;95461.70;;;;117095;1191;25374;-41
2022/04/01 07:34:43;;;;;;;;;16.00;14.67;;;24.87;95460.84;;;;117315;1191;25121;-40
2022/04/01 07:37:12;;;;;;;;;16.00;13.33;;;24.89;95460.91;;;;117274;1190;25602;-39
2022/04/01 07:40:03;;;;;;;;;21.50;12.50;;;25.00;95464.73;;;;117029;1193;25316;-40
2022/04/01 07:42:35;;;;;;;;;15.00;12.00;;;25.02;95460.77;;;;117341;1190;25628;-39
2022/04/01 07:45:06;;;;;;;;;13.33;11.00;;;25.01;95451.09;;;;117303;1191;25376;-39
2022/04/01 07:47:37;;;;;;;;;16.33;13.00;;;25.01;95447.47;;;;117387;1190;24955;-41
2022/04/01 07:50:08;;;;;;;;;16.67;14.33;;;25.04;95440.45;;;;117396;1191;25080;-40
2022/04/01 07:52:42;;;;;;;;;21.33;16.67;;;25.07;95435.18;;;;117388;1191;24943;-41
2022/04/01 07:55:16;;;;;;;;;18.50;11.75;;;25.09;95425.61;;;;117323;1190;25717;-40
2022/04/01 07:57:45;;;;;;;;;14.00;12.00;;;25.12;95422.04;;;;117437;1191;24850;-41
2022/04/01 08:00:16;;;;;;;;;17.00;12.33;;;25.15;95423.05;;;;117314;1190;25819;-40
2022/04/01 08:02:46;;;;;;;;;15.33;12.33;;;25.16;95427.03;;;;117291;1190;24938;-39
2022/04/01 08:05:16;;;;;;;;;14.67;13.00;;;25.19;95426.21;;;;117345;1190;24735;-38
2022/04/01 08:07:46;;;;;;;;;16.00;13.25;;;25.19;95426.27;;;;117336;1191;25643;-41
2022/04/01 08:10:16;;;;;;;;;17.00;14.67;;;25.20;95424.48;;;;117326;1191;25234;-41
2022/04/01 08:12:44;;;;;;;;;17.25;14.75;;;25.22;95422.76;;;;117044;1193;25445;-39
2022/04/01 08:15:16;;;;;;;;;18.25;14.00;;;25.23;95427.00;;;;117097;1191;25162;-40
2022/04/01 08:17:44;;;;;;;;;16.00;11.67;;;25.24;95426.46;;;;117298;1191;24966;-40
2022/04/01 08:20:16;;;;;;;;;13.50;12.50;;;25.25;95430.95;;;;117291;1190;25447;-39
2022/04/01 08:22:45;;;;;;;;;15.75;12.25;;;25.27;95435.04;;;;117306;1189;24844;-40
2022/04/01 08:25:22;;;;;;;;;17.25;12.75;;;25.31;95442.05;;;;117341;1190;25025;-40
2022/04/01 08:27:58;;;;;;;;;12.50;10.25;;;25.36;95445.45;;;;117050;1191;24727;-39
2022/04/01 08:30:29;;;;;;;;;19.33;11.67;;;25.38;95445.90;;;;117303;1191;25518;-40
2022/04/01 08:33:01;;;;;;;;;12.75;11.00;;;25.37;95446.63;;;;117329;1189;25934;-39
2022/04/01 08:35:33;;;;;;;;;12.00;10.33;;;25.40;95443.94;;;;117326;1190;25722;-38
2022/04/01 08:38:04;;;;;;;;;13.25;12.00;;;25.42;95437.33;;;;117330;1191;24798;-39
2022/04/01 08:40:34;;;;;;;;;13.67;11.67;;;25.42;95437.61;;;;117350;1191;25172;-40
2022/04/01 08:43:05;;;;;;;;;13.00;9.75;;;25.41;95436.75;;;;117116;1191;25553;-41
2022/04/01 08:45:38;;;;;;;;;12.00;11.00;;;25.42;95432.85;;;;117346;1191;24798;-39
2022/04/01 08:48:10;;;;;;;;;13.67;10.67;;;25.44;95434.39;;;;117376;1191;24823;-38
2022/04/01 08:50:41;;;;;;;;;10.00;10.00;;;25.46;95432.52;;;;117120;1193;25299;-41
2022/04/01 08:53:13;;;;;;;;;11.50;10.50;;;25.48;95433.90;;;;117360;1191;24977;-40
2022/04/01 08:55:48;;;;;;;;;12.00;12.00;;;25.49;95433.71;;;;117096;1191;24766;-40
2022/04/01 08:58:20;;;;;;;;;9.50;9.00;;;25.54;95427.02;;;;117324;1190;25707;-43
2022/04/01 09:00:49;;;;;;;;;11.25;10.00;;;25.57;95426.71;;;;117353;1190;25482;-41
2022/04/01 09:03:21;;;;;;;;;10.50;10.50;;;25.58;95426.61;;;;117248;1191;24799;-42
2022/04/01 09:05:54;;;;;;;;;7.67;6.67;;;25.60;95428.77;;;;117161;1191;26006;-39
2022/04/01 09:08:35;;;;;;;;;12.67;10.00;;;25.60;95419.02;;;;117399;1191;26392;-42
2022/04/01 09:11:21;;;;;;;;;11.67;8.00;;;25.66;95413.27;;;;117417;1191;25056;-42
2022/04/01 09:13:53;;;;;;;;;9.75;8.25;;;25.69;95418.60;;;;117366;1191;24868;-39
2022/04/01 09:16:24;;;;;;;;;8.00;6.33;;;25.66;95410.50;;;;117373;1189;24913;-39
2022/04/01 09:18:56;;;;;;;;;7.75;6.75;;;25.66;95405.92;;;;117378;1191;25772;-41
2022/04/01 09:21:29;;;;;;;;;12.50;11.50;;;25.68;95405.37;;;;117325;1190;25365;-40
2022/04/01 09:24:00;;;;;;;;;13.50;10.00;;;25.67;95409.60;;;;117108;1191;24743;-40
2022/04/01 09:26:37;;;;;;;;;12.25;9.75;;;25.67;95409.30;;;;117342;1191;24968;-40
2022/04/01 09:29:09;;;;;;;;;15.25;10.25;;;25.69;95409.80;;;;117347;1189;25545;-41
2022/04/01 09:31:40;;;;;;;;;12.00;11.00;;;25.69;95413.78;;;;117380;1190;25015;-41
2022/04/01 09:34:12;;;;;;;;;12.75;11.50;;;25.70;95410.42;;;;117322;1191;25077;-41
2022/04/01 09:36:44;;;;;;;;;9.25;8.75;;;25.71;95411.80;;;;117310;1191;24854;-40
2022/04/01 09:39:19;;;;;;;;;10.00;9.00;;;25.70;95415.90;;;;117314;1189;24899;-40
2022/04/01 09:41:52;;;;;;;;;15.25;10.00;;;25.71;95411.09;;;;117320;1191;25252;-40
2022/04/01 09:44:35;;;;;;;;;12.50;9.75;;;25.74;95410.16;;;;117146;1192;25374;-45
2022/04/01 09:47:07;;;;;;;;;13.00;9.50;;;25.79;95419.68;;;;117024;1191;25630;-42
2022/04/01 09:49:45;;;;;;;;;10.00;9.00;;;25.79;95417.91;;;;117092;1193;25587;-41
2022/04/01 09:52:20;;;;;;;;;8.67;7.33;;;25.80;95411.70;;;;117073;1191;25399;-45
2022/04/01 09:54:55;;;;;;;;;9.25;7.75;;;25.81;95406.44;;;;117101;1191;25190;-42
2022/04/01 09:57:25;;;;;;;;;4.00;4.00;;;25.81;95410.05;;;;117072;1193;25451;-40
2022/04/01 09:59:55;;;;;;;;;8.00;7.50;;;25.82;95411.70;;;;117112;1192;25534;-40
2022/04/01 10:02:26;;;;;;;;;11.25;9.00;;;25.82;95416.77;;;;117077;1191;25586;-40
2022/04/01 10:04:58;;;;;;;;;10.75;8.75;;;25.79;95410.29;;;;117016;1191;25236;-42
2022/04/01 10:07:29;;;;;;;;;4.33;4.33;;;25.78;95402.11;;;;117102;1192;24961;-40
2022/04/01 10:09:59;;;;;;;;;8.25;6.00;;;25.82;95391.31;;;;117068;1193;25975;-42
2022/04/01 10:12:34;;;;;;;;;8.67;3.67;;;25.83;95395.95;;;;117069;1191;25834;-42
2022/04/01 10:15:07;;;;;;;;;5.00;4.25;;;25.84;95395.48;;;;117051;1193;24888;-42
2022/04/01 10:17:55;;;;;;;;;7.00;4.75;;;25.86;95389.44;;;;116991;1193;25543;-42
2022/04/01 10:20:29;;;;;;;;;6.00;3.33;;;25.86;95395.38;;;;117074;1191;25768;-43
2022/04/01 10:23:01;;;;;;;;;6.50;4.25;;;25.78;95401.23;;;;117127;1193;24953;-42
2022/04/01 10:25:39;;;;;;;;;10.00;5.25;;;25.70;95400.44;;;;117084;1191;24914;-40
2022/04/01 10:28:08;;;;;;;;;4.25;4.25;;;25.67;95396.88;;;;117065;1193;25300;-40
2022/04/01 10:30:52;;;;;;;;;3.00;3.00;;;25.61;95409.59;;;;117076;1193;25556;-40
2022/04/01 10:33:22;;;;;;;;;3.50;2.75;;;25.59;95425.20;;;;117099;1192;25281;-39
2022/04/01 10:35:51;;;;;;;;;6.50;4.00;;;25.61;95456.05;;;;117088;1193;24825;-40
2022/04/01 10:38:24;;;;;;;;;5.33;4.00;;;25.54;95468.05;;;;117083;1193;25213;-39
2022/04/01 10:40:53;;;;;;;;;6.50;5.50;;;25.49;95481.89;;;;117054;1193;25222;-41
2022/04/01 10:43:29;;;;;;;;;6.00;5.00;;;25.48;95474.49;;;;117042;1193;25170;-38
2022/04/01 10:46:14;;;;;;;;;7.25;3.00;;;25.48;95473.35;;;;117075;1193;24718;-39
2022/04/01 10:52:18;;;;;;;;;7.50;6.50;;;25.66;95471.70;;;;117307;1191;25691;-41
2022/04/01 10:54:47;;;;;;;;;12.00;5.00;;;25.66;95477.96;;;;117345;1191;25681;-41
2022/04/01 10:57:30;;;;;;;;;8.33;6.67;;;25.65;95463.33;;;;117342;1191;25644;-39
2022/04/01 11:00:07;;;;;;;;;6.75;5.25;;;25.63;95465.48;;;;117362;1189;25292;-39
2022/04/01 11:02:37;;;;;;;;;8.00;7.00;;;25.66;95463.89;;;;117351;1191;25055;-38
2022/04/01 11:05:31;;;;;;;;;7.33;4.00;;;25.71;95455.90;;;;117408;1189;25305;-39
2022/04/01 11:08:16;;;;;;;;;9.00;5.00;;;25.72;95451.99;;;;117352;1191;25780;-42
2022/04/01 11:11:09;;;;;;;;;6.00;5.00;;;25.67;95450.48;;;;117315;1191;24823;-41
2022/04/01 11:14:02;;;;;;;;;5.75;4.50;;;25.66;95443.23;;;;117302;1191;25475;-41
2022/04/01 11:16:50;;;;;;;;;5.50;4.00;;;25.68;95436.10;;;;117294;1191;25572;-42
2022/04/01 11:19:29;;;;;;;;;7.50;5.25;;;25.72;95427.90;;;;117301;1191;25512;-41
2022/04/01 11:22:07;;;;;;;;;8.00;7.00;;;25.65;95428.05;;;;117296;1191;25682;-42
2022/04/01 11:24:41;;;;;;;;;6.67;5.00;;;25.70;95418.25;;;;117268;1191;25462;-40
2022/04/01 11:27:28;;;;;;;;;4.00;4.00;;;25.73;95408.21;;;;117347;1191;25713;-38
2022/04/01 11:30:14;;;;;;;;;5.25;3.50;;;25.83;95393.80;;;;117305;1191;25364;-38
2022/04/01 11:32:57;;;;;;;;;3.50;3.50;;;25.85;95395.35;;;;117322;1191;25411;-37
2022/04/01 11:36:06;;;;;;;;;5.67;4.33;;;25.92;95393.30;;;;117309;1191;24789;-39
2022/04/01 11:38:50;;;;;;;;;6.25;4.00;;;25.96;95389.37;;;;117319;1190;24746;-39
2022/04/01 11:41:23;;;;;;;;;6.00;6.00;;;25.94;95381.45;;;;117295;1190;24948;-40
2022/04/01 11:43:53;;;;;;;;;6.00;3.00;;;25.93;95369.77;;;;117050;1190;25623;-38
2022/04/01 11:46:25;;;;;;;;;5.25;4.25;;;25.93;95362.71;;;;117333;1191;25611;-42
2022/04/01 11:49:12;;;;;;;;;5.00;5.00;;;25.93;95361.23;;;;117256;1190;25262;-43
2022/04/01 11:51:44;;;;;;;;;5.00;5.00;;;26.01;95358.67;;;;117331;1191;25082;-38
2022/04/01 11:54:21;;;;;;;;;5.67;4.00;;;26.03;95356.73;;;;117306;1191;25676;-40
2022/04/01 11:57:15;;;;;;;;;6.33;5.33;;;26.01;95350.94;;;;117328;1191;25148;-42
2022/04/01 11:59:46;;;;;;;;;8.50;5.00;;;26.03;95349.11;;;;117091;1192;25809;-37
2022/04/01 12:02:16;;;;;;;;;7.75;5.00;;;26.01;95347.40;;;;117442;1191;25698;-39
2022/04/01 12:04:58;;;;;;;;;6.75;5.75;;;26.05;95351.83;;;;117393;1190;25061;-39
2022/04/01 12:10:27;;;;;;;;;9.25;5.50;;;26.09;95356.23;;;;117126;1191;25413;-40
2022/04/01 12:13:02;;;;;;;;;9.00;5.50;;;26.08;95351.04;;;;117323;1191;25079;-41
2022/04/01 12:15:35;;;;;;;;;9.67;6.67;;;26.03;95350.65;;;;117327;1191;25192;-43
2022/04/01 12:18:26;;;;;;;;;6.33;6.33;;;25.99;95356.30;;;;117304;1191;25009;-40
2022/04/01 12:21:05;;;;;;;;;8.33;6.33;;;25.98;95354.82;;;;117349;1191;25026;-39
2022/04/01 12:23:46;;;;;;;;;6.00;4.50;;;25.97;95349.34;;;;117330;1190;25342;-43
2022/04/01 12:29:58;;;;;;;;;11.75;8.00;;;25.91;95349.58;;;;117341;1191;24853;-40
2022/04/01 12:32:30;;;;;;;;;9.67;8.00;;;25.87;95349.60;;;;117365;1191;25310;-39
2022/04/01 12:35:02;;;;;;;;;12.50;8.50;;;25.90;95347.15;;;;117392;1191;24831;-44
2022/04/01 12:37:32;;;;;;;;;12.25;9.75;;;25.92;95340.55;;;;117329;1189;25711;-42
2022/04/01 12:40:27;;;;;;;;;12.00;9.25;;;25.96;95335.44;;;;117328;1191;25363;-40
2022/04/01 12:42:57;;;;;;;;;12.00;9.00;;;26.00;95329.46;;;;117324;1191;25557;-36
2022/04/01 12:45:31;;;;;;;;;10.75;8.50;;;26.01;95332.77;;;;117323;1191;25445;-37
2022/04/01 12:47:59;;;;;;;;;13.67;10.00;;;26.06;95333.27;;;;117117;1191;25330;-43
2022/04/01 12:50:35;;;;;;;;;10.33;8.00;;;26.07;95330.03;;;;117305;1191;24888;-39